Time;durP1;ratioP1;P1;durP2;ratioP2;P2;SDS_P1;SDS_P2;PMS_P1;PMS_P2;Temp;Humidity;BMP_temperature;BMP_pressure;BME280_temperature;BME280_humidity;BME280_pressure;Samples;Min_cycle;Max_cycle;Signal;HPM_P1;HPM_P2
2023/08/30 00:01:56;;;;;;;;;5.00;5.00;;;;;18.92;64.29;100659.47;5061433;28;46583;-68
2023/08/30 00:04:22;;;;;;;;;5.00;5.00;;;;;18.94;64.47;100662.06;5075927;28;45430;-68
2023/08/30 00:06:47;;;;;;;;;5.00;5.00;;;;;18.92;64.51;100662.19;5059577;28;45462;-68
2023/08/30 00:09:13;;;;;;;;;3.00;3.00;;;;;18.93;64.74;100663.03;5060962;28;45731;-68
2023/08/30 00:11:38;;;;;;;;;5.75;4.75;;;;;18.91;64.44;100660.47;5059941;28;53168;-68
2023/08/30 00:14:06;;;;;;;;;5.75;5.75;;;;;18.91;64.62;100660.47;5059667;28;45426;-68
2023/08/30 00:16:32;;;;;;;;;5.00;5.00;;;;;18.92;64.93;100661.31;5061196;28;45361;-68
2023/08/30 00:18:58;;;;;;;;;6.75;6.75;;;;;18.86;64.96;100640.94;5060519;28;45302;-68
2023/08/30 00:21:24;;;;;;;;;6.00;6.00;;;;;18.84;64.61;100645.59;5058649;28;45978;-68
2023/08/30 00:23:49;;;;;;;;;11.75;8.25;;;;;18.91;64.41;100646.06;5059251;28;49940;-68
2023/08/30 00:26:14;;;;;;;;;6.75;6.50;;;;;18.79;64.56;100629.66;5076416;28;52387;-68
2023/08/30 00:28:40;;;;;;;;;10.50;7.50;;;;;18.79;64.87;100639.63;5059772;28;45245;-68
2023/08/30 00:31:05;;;;;;;;;6.00;6.00;;;;;18.80;64.89;100642.22;5075796;27;58329;-68
2023/08/30 00:33:30;;;;;;;;;6.25;6.25;;;;;18.80;64.44;100644.06;5060461;28;45556;-68
2023/08/30 00:35:57;;;;;;;;;5.75;5.75;;;;;18.79;64.94;100643.19;5075804;27;45514;-68
2023/08/30 00:38:23;;;;;;;;;9.00;8.25;;;;;18.75;64.77;100633.56;5057147;28;45465;-68
2023/08/30 00:40:48;;;;;;;;;4.75;4.75;;;;;18.73;64.91;100629.22;5060677;28;46274;-68
2023/08/30 00:43:13;;;;;;;;;6.00;6.00;;;;;18.73;64.64;100631.91;5059114;28;45453;-68
2023/08/30 00:45:40;;;;;;;;;5.25;4.50;;;;;18.61;65.06;100625.50;5059709;28;45404;-68
2023/08/30 00:48:06;;;;;;;;;7.75;6.75;;;;;18.60;65.31;100624.66;5060654;28;45390;-68
2023/08/30 00:50:32;;;;;;;;;6.75;6.50;;;;;18.54;65.35;100618.78;5075843;27;47950;-68
2023/08/30 00:52:57;;;;;;;;;9.00;7.25;;;;;18.49;65.11;100611.00;5060508;28;45431;-68
2023/08/30 00:55:22;;;;;;;;;9.75;5.75;;;;;18.40;65.36;100601.69;5076306;27;45589;-68
2023/08/30 00:57:48;;;;;;;;;6.75;5.50;;;;;18.46;65.61;100606.69;5064007;28;45310;-68
2023/08/30 01:00:13;;;;;;;;;7.25;7.25;;;;;18.48;65.60;100610.13;5063395;28;46391;-68
2023/08/30 01:02:39;;;;;;;;;6.00;6.00;;;;;18.48;65.53;100610.13;5075480;28;45519;-68
2023/08/30 01:05:04;;;;;;;;;5.75;5.75;;;;;18.47;65.65;100608.38;5055011;28;45532;-68
2023/08/30 01:07:30;;;;;;;;;7.50;7.50;;;;;18.42;65.82;100598.88;5058812;28;45493;-68
2023/08/30 01:09:56;;;;;;;;;9.00;9.00;;;;;18.38;65.43;100591.97;5058624;28;47502;-67
2023/08/30 01:12:33;;;;;;;;;5.50;5.25;;;;;18.44;65.94;100589.72;5058644;28;46939;-67
2023/08/30 01:15:12;;;;;;;;;9.00;8.50;;;;;18.54;65.51;100597.16;5060159;28;45491;-68
2023/08/30 01:17:41;;;;;;;;;9.50;7.50;;;;;18.53;65.88;100596.31;5052917;28;45520;-68
2023/08/30 01:20:14;;;;;;;;;5.00;4.75;;;;;18.47;65.44;100589.47;5059407;28;46475;-67
2023/08/30 01:23:02;;;;;;;;;6.25;6.25;;;;;18.49;65.74;100592.06;5059626;28;45761;-67
2023/08/30 01:26:02;;;;;;;;;4.50;4.50;;;;;18.45;65.51;100591.41;5075873;27;45682;-67
2023/08/30 01:28:31;;;;;;;;;7.50;6.50;;;;;18.39;65.45;100572.06;5074379;28;45611;-68
2023/08/30 01:30:58;;;;;;;;;8.25;7.25;;;;;18.42;65.70;100583.50;5059510;28;46124;-67
2023/08/30 01:33:26;;;;;;;;;7.25;6.50;;;;;18.40;65.54;100579.19;5056504;28;45669;-67
2023/08/30 01:35:56;;;;;;;;;8.75;7.50;;;;;18.36;65.78;100586.66;5063416;28;45354;-68
2023/08/30 01:38:23;;;;;;;;;7.00;6.50;;;;;18.31;66.18;100575.28;5058240;28;45531;-68
2023/08/30 01:40:50;;;;;;;;;5.25;4.75;;;;;18.28;65.69;100573.66;5058330;28;47535;-67
2023/08/30 01:43:17;;;;;;;;;6.25;5.50;;;;;18.20;65.96;100558.94;5053226;28;45308;-68
2023/08/30 01:45:43;;;;;;;;;9.00;8.50;;;;;18.24;65.79;100564.03;5059632;28;45489;-68
2023/08/30 01:48:12;;;;;;;;;5.75;5.75;;;;;18.15;65.61;100551.13;5065065;28;45325;-68
2023/08/30 01:50:42;;;;;;;;;7.25;7.25;;;;;18.27;65.70;100571.91;5075230;28;47297;-68
2023/08/30 01:53:10;;;;;;;;;6.75;6.50;;;;;18.20;66.41;100556.22;5058764;28;45495;-68
2023/08/30 01:55:37;;;;;;;;;8.25;5.75;;;;;18.29;65.98;100570.00;5058523;28;45472;-68
2023/08/30 01:58:03;;;;;;;;;5.00;5.00;;;;;18.23;66.09;100554.19;5061311;28;46183;-68
2023/08/30 02:00:29;;;;;;;;;6.00;5.00;;;;;18.29;65.77;100561.88;5061652;28;46542;-68
2023/08/30 02:02:54;;;;;;;;;5.00;5.00;;;;;18.25;65.96;100554.94;5058732;28;45508;-68
2023/08/30 02:05:20;;;;;;;;;4.75;3.50;;;;;18.32;65.86;100552.69;5059017;28;45481;-68
2023/08/30 02:08:05;;;;;;;;;3.25;3.25;;;;;18.28;66.06;100554.72;5050065;28;45543;-67
2023/08/30 02:10:42;;;;;;;;;5.00;5.00;;;;;18.37;66.09;100563.19;5061795;28;45529;-67
2023/08/30 02:13:10;;;;;;;;;4.75;4.25;;;;;18.35;65.97;100552.47;5074969;27;45450;-68
2023/08/30 02:15:38;;;;;;;;;6.25;4.25;;;;;18.35;65.87;100552.47;5058577;28;45331;-67
2023/08/30 02:18:05;;;;;;;;;5.50;4.50;;;;;18.37;65.76;100547.84;5049960;28;45549;-68
2023/08/30 02:20:31;;;;;;;;;5.00;4.00;;;;;18.42;66.15;100552.94;5070033;28;46172;-68
2023/08/30 02:23:00;;;;;;;;;3.50;3.25;;;;;18.38;65.99;100540.63;5074211;28;46085;-68
2023/08/30 02:25:25;;;;;;;;;6.50;6.50;;;;;18.41;65.61;100557.47;5059440;28;45561;-67
2023/08/30 02:27:51;;;;;;;;;5.75;4.50;;;;;18.41;65.80;100552.06;5055211;28;45444;-67
2023/08/30 02:30:17;;;;;;;;;5.25;5.25;;;;;18.49;66.22;100565.03;5057882;28;45996;-68
2023/08/30 02:32:42;;;;;;;;;5.50;5.50;;;;;18.43;65.96;100546.56;5074908;28;45420;-67
2023/08/30 02:35:08;;;;;;;;;5.00;5.00;;;;;18.47;65.83;100558.88;5058976;28;45599;-68
2023/08/30 02:37:33;;;;;;;;;5.00;4.25;;;;;18.42;65.72;100555.63;5049626;28;45756;-68
2023/08/30 02:39:58;;;;;;;;;5.50;5.50;;;;;18.39;66.15;100545.88;5058629;28;46446;-68
2023/08/30 02:42:25;;;;;;;;;3.75;3.75;;;;;18.43;65.77;100550.13;5059254;28;45396;-68
2023/08/30 02:44:51;;;;;;;;;3.50;3.50;;;;;18.45;66.03;100552.72;5058876;28;45321;-68
2023/08/30 02:47:16;;;;;;;;;4.50;4.25;;;;;18.45;65.56;100548.19;5059074;28;45625;-68
2023/08/30 02:49:42;;;;;;;;;7.00;6.00;;;;;18.45;65.79;100545.47;5059012;28;45944;-68
2023/08/30 02:52:07;;;;;;;;;4.00;4.00;;;;;18.44;65.81;100534.78;5058421;28;56656;-68
2023/08/30 02:54:32;;;;;;;;;4.75;4.75;;;;;18.44;66.02;100530.25;5058756;28;47937;-68
2023/08/30 02:56:58;;;;;;;;;3.25;3.00;;;;;18.32;65.85;100520.25;5059117;28;45308;-68
2023/08/30 02:59:23;;;;;;;;;4.25;4.25;;;;;18.38;66.06;100538.75;5058285;28;54891;-68
2023/08/30 03:01:48;;;;;;;;;5.00;3.75;;;;;18.46;65.86;100541.81;5058602;28;53838;-68
2023/08/30 03:04:14;;;;;;;;;3.25;3.25;;;;;18.50;65.80;100551.44;5058463;28;45345;-68
2023/08/30 03:06:39;;;;;;;;;4.00;4.00;;;;;18.46;65.58;100538.22;5058192;28;45564;-68
2023/08/30 03:09:06;;;;;;;;;4.00;4.00;;;;;18.52;65.46;100552.19;5057316;28;53466;-68
2023/08/30 03:11:31;;;;;;;;;6.25;4.00;;;;;18.48;65.92;100539.00;5058609;28;45493;-68
2023/08/30 03:13:57;;;;;;;;;4.00;4.00;;;;;18.55;65.71;100552.97;5058733;28;45424;-68
2023/08/30 03:16:22;;;;;;;;;4.50;3.50;;;;;18.54;65.78;100548.53;5072838;28;53831;-68
2023/08/30 03:18:48;;;;;;;;;3.50;3.50;;;;;18.55;65.44;100550.25;5058504;28;45470;-68
2023/08/30 03:21:14;;;;;;;;;3.75;3.75;;;;;18.52;65.50;100545.91;5059703;28;45468;-67
2023/08/30 03:23:40;;;;;;;;;5.50;4.00;;;;;18.46;65.71;100539.09;5077865;27;45404;-68
2023/08/30 03:26:14;;;;;;;;;5.00;5.00;;;;;18.33;65.53;100519.31;5077065;28;45503;-68
2023/08/30 03:28:40;;;;;;;;;3.00;3.00;;;;;18.48;65.51;100549.81;5060710;28;47086;-68
2023/08/30 03:31:17;;;;;;;;;6.00;4.75;;;;;18.49;65.91;100538.91;5077792;28;45588;-68
2023/08/30 03:33:43;;;;;;;;;5.00;4.50;;;;;18.54;65.99;100543.13;5049892;28;45494;-68
2023/08/30 03:36:12;;;;;;;;;3.75;3.75;;;;;18.51;66.03;100544.22;5061400;28;45323;-68
2023/08/30 03:38:38;;;;;;;;;4.50;2.50;;;;;18.50;65.75;100537.06;5061403;28;45401;-68
2023/08/30 03:41:04;;;;;;;;;1.75;1.75;;;;;18.46;66.04;100513.91;5069097;28;45353;-68
2023/08/30 03:43:32;;;;;;;;;3.25;3.25;;;;;18.53;65.70;100531.44;5062067;28;45330;-68
2023/08/30 03:46:01;;;;;;;;;6.00;5.00;;;;;18.49;65.91;100528.09;5061784;28;45310;-68
2023/08/30 03:48:27;;;;;;;;;5.50;5.00;;;;;18.38;65.91;100508.19;5081596;27;47247;-68
2023/08/30 03:50:52;;;;;;;;;10.25;4.75;;;;;18.42;66.20;100515.09;5061681;28;45338;-68
2023/08/30 03:53:17;;;;;;;;;5.00;3.75;;;;;18.49;66.13;100524.50;5061143;28;45471;-68
2023/08/30 03:55:43;;;;;;;;;3.25;3.25;;;;;18.47;65.91;100527.31;5061728;28;45453;-68
2023/08/30 03:58:08;;;;;;;;;3.25;3.25;;;;;18.50;66.56;100535.22;5061705;28;46208;-68
2023/08/30 04:00:38;;;;;;;;;3.50;3.50;;;;;18.46;66.49;100528.31;5061092;28;45465;-68
2023/08/30 04:03:11;;;;;;;;;3.00;3.00;;;;;18.50;66.54;100529.81;5077039;27;45449;-68
2023/08/30 04:05:37;;;;;;;;;4.00;2.75;;;;;18.38;66.39;100513.59;5061011;28;45507;-68
2023/08/30 04:08:04;;;;;;;;;3.00;3.00;;;;;18.41;66.95;100516.06;5052119;28;45494;-68
2023/08/30 04:10:29;;;;;;;;;4.00;4.00;;;;;18.43;66.76;100520.41;5055939;28;46083;-68
2023/08/30 04:12:54;;;;;;;;;6.50;5.25;;;;;18.47;66.73;100519.19;5059412;28;45478;-67
2023/08/30 04:15:19;;;;;;;;;6.50;5.00;;;;;18.44;67.16;100516.75;5059547;28;49563;-68
2023/08/30 04:17:45;;;;;;;;;3.25;3.25;;;;;18.47;67.07;100521.91;5061408;28;49645;-67
2023/08/30 04:20:10;;;;;;;;;4.00;4.00;;;;;18.44;67.53;100514.03;5061284;28;45460;-68
2023/08/30 04:22:36;;;;;;;;;4.25;4.25;;;;;18.31;67.26;100503.19;5052339;28;45576;-68
2023/08/30 04:25:02;;;;;;;;;3.25;3.25;;;;;18.46;67.34;100522.91;5057041;28;45430;-68
2023/08/30 04:27:28;;;;;;;;;6.50;4.25;;;;;18.47;67.51;100529.16;5075843;28;48293;-68
2023/08/30 04:29:53;;;;;;;;;1.75;1.75;;;;;18.47;67.64;100521.91;5060829;28;45537;-68
2023/08/30 04:32:18;;;;;;;;;3.00;3.00;;;;;18.35;67.96;100493.03;5052703;28;45540;-67
2023/08/30 04:34:44;;;;;;;;;4.75;3.75;;;;;18.44;68.17;100505.94;5064930;28;51734;-67
2023/08/30 04:37:09;;;;;;;;;4.00;4.00;;;;;18.38;68.38;100490.13;5060149;28;45463;-68
2023/08/30 04:39:34;;;;;;;;;2.50;2.50;;;;;18.43;68.57;100496.06;5057482;28;45500;-68
2023/08/30 04:42:00;;;;;;;;;4.50;4.25;;;;;18.40;68.53;100490.03;5061173;28;45380;-68
2023/08/30 04:44:27;;;;;;;;;4.50;4.50;;;;;18.40;68.95;100490.03;5060996;28;45421;-68
2023/08/30 04:46:53;;;;;;;;;3.50;3.50;;;;;18.41;69.00;100487.22;5060976;28;45348;-68
2023/08/30 04:49:19;;;;;;;;;4.50;4.50;;;;;18.42;69.01;100491.63;5060708;28;45436;-68
2023/08/30 04:51:44;;;;;;;;;3.00;3.00;;;;;18.37;69.06;100477.56;5059679;28;45548;-68
2023/08/30 04:54:09;;;;;;;;;5.75;4.00;;;;;18.40;69.65;100490.03;5060477;28;45489;-67
2023/08/30 04:56:35;;;;;;;;;4.00;4.00;;;;;18.39;69.34;100486.44;5060967;28;45232;-68
2023/08/30 04:59:03;;;;;;;;;6.50;5.00;;;;;18.37;69.25;100482.97;5060354;28;45294;-67
2023/08/30 05:01:29;;;;;;;;;2.25;2.25;;;;;18.43;69.57;100493.38;5069810;28;45435;-67
2023/08/30 05:03:54;;;;;;;;;5.00;3.75;;;;;18.40;69.58;100487.31;5059553;28;45421;-68
2023/08/30 05:06:20;;;;;;;;;6.25;3.25;;;;;18.43;70.06;100487.97;5057863;28;48043;-68
2023/08/30 05:08:45;;;;;;;;;3.00;3.00;;;;;18.44;70.01;100487.00;5058669;28;45498;-68
2023/08/30 05:11:10;;;;;;;;;4.00;4.00;;;;;18.48;70.04;100480.41;5060579;28;45480;-67
2023/08/30 05:13:36;;;;;;;;;5.50;5.50;;;;;18.45;69.75;100472.50;5070706;28;45413;-68
2023/08/30 05:16:01;;;;;;;;;5.25;5.25;;;;;18.48;69.63;100477.69;5066925;28;45952;-68
2023/08/30 05:18:27;;;;;;;;;4.75;4.75;;;;;18.37;69.97;100449.69;5059026;28;45638;-68
2023/08/30 05:20:52;;;;;;;;;2.50;2.00;;;;;18.48;70.06;100475.00;5075718;28;51974;-68
2023/08/30 05:23:17;;;;;;;;;4.00;4.00;;;;;18.40;70.28;100458.44;5059469;28;45324;-68
2023/08/30 05:25:42;;;;;;;;;5.00;4.75;;;;;18.49;70.03;100474.03;5060280;28;45302;-68
2023/08/30 05:28:08;;;;;;;;;5.00;5.00;;;;;18.49;70.29;100473.16;5059725;28;59369;-67
2023/08/30 05:30:33;;;;;;;;;3.75;3.00;;;;;18.41;70.44;100471.00;5074426;28;45386;-67
2023/08/30 05:32:58;;;;;;;;;4.50;4.50;;;;;18.48;70.19;100482.25;5058981;28;57396;-68
2023/08/30 05:35:24;;;;;;;;;8.75;6.00;;;;;18.47;70.72;100477.81;5058587;28;58009;-68
2023/08/30 05:37:50;;;;;;;;;4.75;4.75;;;;;18.47;70.21;100467.00;5053458;28;52439;-68
2023/08/30 05:40:17;;;;;;;;;10.00;7.00;;;;;18.48;70.39;100468.75;5059578;28;45391;-68
2023/08/30 05:42:42;;;;;;;;;8.75;5.25;;;;;18.53;70.32;100482.78;5062844;28;45394;-67
2023/08/30 05:45:08;;;;;;;;;4.00;3.00;;;;;18.42;70.32;100469.16;5058473;28;45433;-76
2023/08/30 05:47:33;;;;;;;;;7.50;5.25;;;;;18.41;70.17;100465.59;5059791;28;45596;-75
2023/08/30 05:49:59;;;;;;;;;4.25;4.25;;;;;18.50;70.36;100488.41;5056969;28;46046;-78
2023/08/30 05:52:25;;;;;;;;;5.00;5.00;;;;;18.49;70.66;100482.16;5068217;27;45434;-80
2023/08/30 05:54:50;;;;;;;;;6.50;5.25;;;;;18.49;70.73;100474.03;5059643;28;45609;-81
2023/08/30 05:57:16;;;;;;;;;3.50;3.50;;;;;18.51;70.71;100474.78;5059065;28;45431;-81
2023/08/30 05:59:41;;;;;;;;;7.25;5.75;;;;;18.60;70.87;100485.94;5059622;28;45278;-82
2023/08/30 06:02:06;;;;;;;;;4.50;4.50;;;;;18.60;70.87;100489.50;5065839;27;45630;-81
2023/08/30 06:04:32;;;;;;;;;5.25;3.50;;;;;18.59;70.84;100495.00;5059345;28;45998;-81
2023/08/30 06:06:57;;;;;;;;;5.50;4.00;;;;;18.56;70.90;100489.81;5052239;28;45499;-81
2023/08/30 06:09:22;;;;;;;;;6.75;6.00;;;;;18.59;70.65;100503.97;5045842;28;45424;-80
2023/08/30 06:11:47;;;;;;;;;5.00;5.00;;;;;18.60;70.55;100499.44;5055676;28;58202;-80
2023/08/30 06:14:13;;;;;;;;;4.25;4.25;;;;;18.64;71.09;100503.66;5057930;28;45491;-80
2023/08/30 06:16:38;;;;;;;;;5.25;4.00;;;;;18.61;71.21;100496.63;5064895;27;46940;-81
2023/08/30 06:19:04;;;;;;;;;7.25;5.50;;;;;18.61;71.28;100495.75;5059774;28;45357;-73
2023/08/30 06:21:29;;;;;;;;;4.25;4.25;;;;;18.63;71.42;100501.94;5056897;28;45608;-75
2023/08/30 06:23:54;;;;;;;;;6.00;5.25;;;;;18.62;71.72;100501.06;5053951;28;45470;-75
2023/08/30 06:26:20;;;;;;;;;8.75;4.00;;;;;18.64;71.56;100500.94;5072690;28;45282;-76
2023/08/30 06:28:45;;;;;;;;;6.00;6.00;;;;;18.61;71.66;100502.03;5057840;28;45407;-76
2023/08/30 06:31:11;;;;;;;;;4.25;4.25;;;;;18.58;71.77;100490.59;5057745;28;45516;-76
2023/08/30 06:33:36;;;;;;;;;6.00;6.00;;;;;18.61;71.58;100496.63;5059501;28;45633;-77
2023/08/30 06:36:02;;;;;;;;;6.75;3.50;;;;;18.49;71.58;100474.03;5059527;27;45424;-74
2023/08/30 06:38:27;;;;;;;;;5.00;3.50;;;;;18.63;71.73;100497.38;5061392;28;45420;-75
2023/08/30 06:40:53;;;;;;;;;4.00;4.00;;;;;18.65;71.61;100500.84;5059026;28;45496;-75
2023/08/30 06:43:18;;;;;;;;;2.00;2.00;;;;;18.59;71.47;100485.03;5058138;27;45972;-73
2023/08/30 06:45:44;;;;;;;;;2.00;2.00;;;;;18.72;71.62;100500.41;5057530;28;45516;-75
2023/08/30 06:48:09;;;;;;;;;5.75;4.75;;;;;18.68;71.81;100500.63;5053116;28;45287;-74
2023/08/30 06:50:35;;;;;;;;;5.00;5.00;;;;;18.69;71.80;100502.38;5058811;28;45369;-75
2023/08/30 06:53:02;;;;;;;;;3.75;3.25;;;;;18.67;71.38;100500.75;5057429;28;45500;-72
2023/08/30 06:55:27;;;;;;;;;4.25;3.25;;;;;18.75;71.71;100511.03;5052531;28;45689;-73
2023/08/30 06:57:52;;;;;;;;;2.75;2.75;;;;;18.72;71.89;100501.28;5052850;28;45701;-73
2023/08/30 07:00:18;;;;;;;;;3.75;3.00;;;;;18.75;71.87;100508.31;5055419;28;57800;-73
2023/08/30 07:02:45;;;;;;;;;1.50;1.50;;;;;18.77;71.85;100514.47;5051906;28;46006;-73
2023/08/30 07:05:11;;;;;;;;;2.00;2.00;;;;;18.78;71.80;100519.78;5058650;28;45557;-72
2023/08/30 07:07:36;;;;;;;;;2.75;2.75;;;;;18.79;71.89;100517.94;5065867;27;45607;-72
2023/08/30 07:10:02;;;;;;;;;2.00;2.00;;;;;18.75;71.91;100501.06;5056050;28;45424;-73
2023/08/30 07:12:28;;;;;;;;;1.75;1.75;;;;;18.78;71.72;100508.97;5048468;28;45483;-72
2023/08/30 07:14:53;;;;;;;;;2.00;2.00;;;;;18.80;71.62;100512.41;5070579;27;45545;-73
2023/08/30 07:17:18;;;;;;;;;2.50;2.50;;;;;18.80;71.44;100501.59;5051965;28;45444;-67
2023/08/30 07:19:44;;;;;;;;;3.75;2.00;;;;;18.83;71.43;100508.69;5056605;28;50906;-66
2023/08/30 07:22:09;;;;;;;;;1.25;1.25;;;;;18.88;71.70;100514.63;5052983;28;58780;-66
2023/08/30 07:24:34;;;;;;;;;2.00;2.00;;;;;18.84;71.39;100502.28;5049974;28;45456;-67
2023/08/30 07:27:00;;;;;;;;;4.00;1.50;;;;;18.88;71.47;100512.78;5072380;27;45457;-66
2023/08/30 07:29:25;;;;;;;;;1.75;1.75;;;;;18.83;71.48;100506.84;5061544;28;45616;-66
2023/08/30 07:31:53;;;;;;;;;3.25;2.75;;;;;18.88;72.01;100509.22;5051108;28;46214;-67
2023/08/30 07:34:18;;;;;;;;;1.75;1.00;;;;;18.85;71.64;100502.19;5054563;28;45272;-66
2023/08/30 07:36:44;;;;;;;;;2.00;2.00;;;;;18.90;71.33;100506.41;5056424;28;45215;-66
2023/08/30 07:39:09;;;;;;;;;2.00;2.00;;;;;18.92;71.30;100509.88;5060131;28;45446;-66
2023/08/30 07:41:35;;;;;;;;;3.00;2.00;;;;;18.98;71.12;100504.88;5064111;27;45367;-66
2023/08/30 07:44:00;;;;;;;;;1.75;1.75;;;;;18.98;71.48;100504.88;5072027;27;45463;-66
2023/08/30 07:46:26;;;;;;;;;3.00;2.00;;;;;19.01;71.22;100510.06;5046658;28;45244;-66
2023/08/30 07:48:51;;;;;;;;;3.00;2.25;;;;;19.04;71.23;100506.28;5054907;28;45667;-66
2023/08/30 07:51:17;;;;;;;;;4.00;2.00;;;;;19.09;70.69;100509.50;5067919;27;47070;-66
2023/08/30 07:53:42;;;;;;;;;4.00;2.00;;;;;19.11;70.89;100504.00;5054382;28;45596;-66
2023/08/30 07:56:08;;;;;;;;;2.50;2.50;;;;;19.13;70.52;100497.50;5053378;28;45661;-66
2023/08/30 07:58:34;;;;;;;;;3.00;2.00;;;;;19.20;70.69;100508.75;5062736;28;45516;-66
2023/08/30 08:00:59;;;;;;;;;2.00;2.00;;;;;19.21;70.18;100503.22;5053061;28;46462;-66
2023/08/30 08:03:25;;;;;;;;;2.00;2.00;;;;;19.23;70.06;100503.97;5055013;28;45563;-66
2023/08/30 08:05:50;;;;;;;;;1.50;1.50;;;;;19.20;69.64;100506.91;5056703;28;45944;-67
2023/08/30 08:08:16;;;;;;;;;2.00;2.00;;;;;19.25;69.69;100509.28;5054469;28;48279;-66
2023/08/30 08:10:42;;;;;;;;;0.25;0.25;;;;;19.25;69.44;100499.31;5058516;28;46357;-70
2023/08/30 08:13:08;;;;;;;;;1.50;1.50;;;;;19.29;69.54;100505.38;5054253;28;48593;-65
2023/08/30 08:15:33;;;;;;;;;1.25;1.00;;;;;19.29;69.81;100501.78;5049803;28;45344;-68
2023/08/30 08:18:00;;;;;;;;;2.00;2.00;;;;;19.33;69.24;100512.28;5056288;28;45718;-65
2023/08/30 08:20:26;;;;;;;;;2.75;1.50;;;;;19.34;69.15;100505.88;5058550;28;45806;-65
2023/08/30 08:22:51;;;;;;;;;1.75;1.75;;;;;19.30;69.18;100503.53;5046136;28;45514;-65
2023/08/30 08:25:16;;;;;;;;;2.00;2.00;;;;;19.35;68.83;100506.78;5055239;28;45612;-65
2023/08/30 08:27:42;;;;;;;;;3.00;3.00;;;;;19.33;68.77;100508.69;5054159;28;45485;-65
2023/08/30 08:30:09;;;;;;;;;1.25;1.25;;;;;19.33;68.30;100506.00;5060309;28;45648;-65
2023/08/30 08:32:34;;;;;;;;;1.00;1.00;;;;;19.36;68.77;100503.06;5049652;28;45603;-65
2023/08/30 08:34:59;;;;;;;;;3.00;2.00;;;;;19.40;68.91;100515.41;5055333;28;45453;-65
2023/08/30 08:37:25;;;;;;;;;2.00;2.00;;;;;19.40;68.28;100508.16;5054531;28;54595;-65
2023/08/30 08:39:50;;;;;;;;;2.00;2.00;;;;;19.36;67.60;100505.78;5075288;27;48154;-65
2023/08/30 08:42:19;;;;;;;;;2.00;2.00;;;;;19.38;67.89;100503.84;5056384;28;45481;-65
2023/08/30 08:44:47;;;;;;;;;3.50;2.00;;;;;19.45;66.93;100505.13;5058390;28;45387;-65
2023/08/30 08:47:13;;;;;;;;;3.00;3.00;;;;;19.44;67.24;100508.78;5056239;28;45536;-65
2023/08/30 08:49:39;;;;;;;;;3.25;2.00;;;;;19.47;66.67;100511.28;5053429;28;45686;-65
2023/08/30 08:52:05;;;;;;;;;4.00;3.00;;;;;19.48;66.75;100513.03;5063433;28;45394;-65
2023/08/30 08:54:30;;;;;;;;;5.00;3.75;;;;;19.48;66.71;100518.44;5059025;28;45598;-65
2023/08/30 08:56:57;;;;;;;;;2.50;2.50;;;;;19.57;66.75;100523.16;5075541;27;45515;-65
2023/08/30 08:59:23;;;;;;;;;3.50;2.00;;;;;19.59;66.39;100523.91;5057548;28;45613;-65
2023/08/30 09:01:49;;;;;;;;;2.00;2.00;;;;;19.60;66.74;100527.50;5067918;27;45416;-65
2023/08/30 09:04:15;;;;;;;;;4.25;4.00;;;;;19.60;66.47;100516.66;5066334;28;45334;-67
2023/08/30 09:06:41;;;;;;;;;3.50;2.00;;;;;19.60;65.68;100522.06;5058246;28;45290;-66
2023/08/30 09:09:08;;;;;;;;;2.75;2.75;;;;;19.62;66.37;100529.09;5065665;28;46950;-66
2023/08/30 09:11:34;;;;;;;;;3.00;3.00;;;;;19.62;65.45;100523.69;5054785;27;45358;-66
2023/08/30 09:13:59;;;;;;;;;3.25;1.50;;;;;19.67;65.39;100534.19;5055041;28;45440;-66
2023/08/30 09:16:24;;;;;;;;;2.50;2.50;;;;;19.69;64.74;100520.53;5061238;28;45394;-66
2023/08/30 09:19:04;;;;;;;;;2.50;2.00;;;;;19.66;64.88;100529.72;5056835;28;45392;-66
2023/08/30 09:21:31;;;;;;;;;1.75;1.75;;;;;19.73;64.49;100532.84;5051962;28;46533;-66
2023/08/30 09:24:04;;;;;;;;;2.00;2.00;;;;;19.69;64.08;100529.50;5075055;27;45658;-66
2023/08/30 09:26:31;;;;;;;;;4.00;2.00;;;;;19.76;63.88;100535.34;5052343;28;45572;-66
2023/08/30 09:29:08;;;;;;;;;2.00;2.00;;;;;19.77;63.44;100528.97;5045771;28;46847;-65
2023/08/30 09:31:34;;;;;;;;;2.75;2.00;;;;;19.80;63.34;100534.16;5065813;27;45514;-66
2023/08/30 09:34:01;;;;;;;;;3.25;2.00;;;;;19.79;63.55;100529.72;5049677;28;45572;-66
2023/08/30 09:36:32;;;;;;;;;2.75;1.75;;;;;19.82;63.13;100528.66;5052038;28;46585;-66
2023/08/30 09:38:58;;;;;;;;;2.00;2.00;;;;;19.86;62.62;100520.16;5055377;28;46555;-66
2023/08/30 09:41:24;;;;;;;;;2.00;1.25;;;;;19.90;62.25;100527.09;5051203;28;45627;-65
2023/08/30 09:43:50;;;;;;;;;2.50;2.00;;;;;19.93;61.81;100520.56;5051312;28;45407;-65
2023/08/30 09:46:15;;;;;;;;;2.75;2.00;;;;;19.91;61.01;100501.75;5051880;28;45592;-66
2023/08/30 09:48:41;;;;;;;;;4.00;3.00;;;;;19.88;60.48;100498.38;5056667;28;45438;-66
2023/08/30 09:51:09;;;;;;;;;4.50;1.00;;;;;19.99;59.46;100520.97;5052252;28;45426;-65
2023/08/30 09:53:42;;;;;;;;;2.00;2.00;;;;;20.01;58.42;100515.44;5073206;27;45515;-65
2023/08/30 09:56:10;;;;;;;;;1.50;1.50;;;;;20.00;58.54;100511.00;5050531;28;45441;-66
2023/08/30 09:58:36;;;;;;;;;4.25;2.75;;;;;19.96;58.56;100506.78;5051554;28;45980;-65
2023/08/30 10:01:02;;;;;;;;;2.00;2.00;;;;;20.04;58.51;100506.22;5059998;28;45580;-66
2023/08/30 10:03:30;;;;;;;;;1.00;1.00;;;;;20.12;58.02;100511.91;5056257;28;45744;-65
2023/08/30 10:05:56;;;;;;;;;2.00;1.50;;;;;20.16;58.14;100508.88;5074532;27;45743;-66
2023/08/30 10:08:23;;;;;;;;;1.25;1.25;;;;;20.19;58.17;100507.75;5055256;28;46358;-66
2023/08/30 10:10:50;;;;;;;;;2.25;2.25;;;;;20.22;57.32;100507.50;5056043;28;45693;-65
2023/08/30 10:13:17;;;;;;;;;2.00;2.00;;;;;20.24;57.62;100510.97;5057891;28;45311;-66
2023/08/30 10:15:47;;;;;;;;;1.50;1.50;;;;;20.30;57.43;100509.66;5055363;28;45460;-66
2023/08/30 10:18:19;;;;;;;;;3.00;3.00;;;;;20.33;57.61;100509.38;5067995;28;45698;-66
2023/08/30 10:20:45;;;;;;;;;1.00;1.00;;;;;20.36;57.69;100511.88;5064251;28;45579;-66
2023/08/30 10:23:11;;;;;;;;;3.00;1.00;;;;;20.42;57.33;100500.56;5057295;28;45537;-66
2023/08/30 10:25:38;;;;;;;;;1.75;1.75;;;;;20.42;56.99;100502.41;5060512;28;45323;-66
2023/08/30 10:28:04;;;;;;;;;2.75;2.00;;;;;20.46;56.77;100506.59;5047736;28;46336;-66
2023/08/30 10:30:30;;;;;;;;;1.75;1.50;;;;;20.47;56.68;100511.91;5075268;27;45434;-66
2023/08/30 10:32:55;;;;;;;;;2.00;2.00;;;;;20.45;56.05;100499.47;5050787;27;45252;-66
2023/08/30 10:35:21;;;;;;;;;2.00;2.00;;;;;20.50;55.92;100516.25;5075419;27;45715;-65
2023/08/30 10:37:58;;;;;;;;;2.00;2.00;;;;;20.50;55.68;100508.09;5069602;27;49529;-66
2023/08/30 10:40:24;;;;;;;;;3.00;3.00;;;;;20.54;55.42;100524.00;5047225;28;45351;-66
2023/08/30 10:42:59;;;;;;;;;4.00;3.00;;;;;20.51;55.42;100505.28;5058130;28;45416;-66
2023/08/30 10:45:24;;;;;;;;;4.00;1.25;;;;;20.55;54.55;100505.91;5054199;28;45695;-66
2023/08/30 10:47:55;;;;;;;;;3.50;3.50;;;;;20.55;54.85;100504.03;5050099;28;46270;-65
2023/08/30 10:50:28;;;;;;;;;2.75;2.00;;;;;20.57;53.81;100511.19;5048679;28;46405;-65
2023/08/30 10:52:56;;;;;;;;;3.00;2.00;;;;;20.57;52.63;100508.50;5057862;28;45422;-65
2023/08/30 10:55:23;;;;;;;;;2.50;1.75;;;;;20.59;52.49;100511.94;5057256;28;45371;-66
2023/08/30 10:57:59;;;;;;;;;1.50;1.50;;;;;20.59;52.38;100510.09;5049072;28;47307;-66
2023/08/30 11:00:25;;;;;;;;;3.00;0.00;;;;;20.55;52.30;100505.91;5062808;28;45762;-66
2023/08/30 11:02:51;;;;;;;;;3.50;1.75;;;;;20.61;52.49;100505.41;5069881;28;45693;-66
2023/08/30 11:05:18;;;;;;;;;2.00;2.00;;;;;20.59;52.46;100507.38;5068873;28;45513;-66
2023/08/30 11:07:44;;;;;;;;;3.00;3.00;;;;;20.65;52.70;100515.06;5058125;28;46205;-66
2023/08/30 11:10:10;;;;;;;;;3.50;3.50;;;;;20.65;53.07;100511.50;5052310;28;47444;-65
2023/08/30 11:12:35;;;;;;;;;4.50;2.25;;;;;20.66;53.45;100505.94;5049622;28;45326;-65
2023/08/30 11:15:02;;;;;;;;;2.00;2.00;;;;;20.70;52.34;100504.72;5050834;28;45581;-65
2023/08/30 11:17:28;;;;;;;;;3.00;3.00;;;;;20.75;52.78;100511.63;5078199;27;47214;-65
2023/08/30 11:20:09;;;;;;;;;4.75;3.00;;;;;20.76;53.08;100499.78;5055152;28;45683;-65
2023/08/30 11:22:37;;;;;;;;;3.25;2.75;;;;;20.75;53.43;100498.06;5053331;28;45482;-65